createdAt,value
2022-10-25T00:00:39.898Z,12.99
2022-10-25T00:05:39.825Z,12.67
2022-10-25T00:10:39.757Z,12.71
2022-10-25T00:15:39.713Z,12.85
2022-10-25T00:20:39.797Z,12.81
2022-10-25T00:25:39.578Z,13.55
2022-10-25T00:30:39.495Z,13.14
2022-10-25T00:35:39.443Z,12.77
2022-10-25T00:40:39.384Z,12.75
2022-10-25T00:45:39.287Z,12.71
2022-10-25T00:50:39.295Z,12.70
2022-10-25T00:55:39.187Z,12.39
2022-10-25T01:00:39.162Z,12.56
2022-10-25T01:05:39.043Z,12.56
2022-10-25T01:10:38.973Z,12.38
2022-10-25T01:15:38.894Z,12.75
2022-10-25T01:20:38.858Z,13.15
2022-10-25T01:25:38.793Z,13.51
2022-10-25T01:30:38.716Z,13.24
2022-10-25T01:35:38.640Z,13.11
2022-10-25T01:40:38.595Z,13.21
2022-10-25T01:45:38.516Z,12.63
2022-10-25T01:50:38.465Z,12.04
2022-10-25T01:55:38.394Z,11.93
2022-10-25T02:00:38.411Z,11.78
2022-10-25T02:05:38.272Z,11.77
2022-10-25T02:10:38.202Z,11.93
2022-10-25T02:15:38.177Z,12.09
2022-10-25T02:20:40.751Z,12.16
2022-10-25T02:25:38.995Z,12.08
2022-10-25T02:30:37.926Z,11.89
2022-10-25T02:35:37.880Z,11.80
2022-10-25T02:40:37.786Z,11.82
2022-10-25T02:45:37.727Z,11.80
2022-10-25T02:50:37.680Z,11.90
2022-10-25T02:55:37.650Z,11.85
2022-10-25T03:00:37.572Z,11.82
2022-10-25T03:05:37.490Z,11.87
2022-10-25T03:10:37.400Z,11.99
2022-10-25T03:15:37.319Z,12.02
2022-10-25T03:20:37.266Z,12.06
2022-10-25T03:25:37.204Z,12.11
2022-10-25T03:30:37.138Z,12.09
2022-10-25T03:35:37.072Z,12.05
2022-10-25T03:40:36.993Z,12.15
2022-10-25T03:45:36.927Z,12.45
2022-10-25T03:50:36.848Z,12.89
2022-10-25T03:55:36.799Z,13.24
2022-10-25T04:00:36.771Z,13.30
2022-10-25T04:05:36.657Z,13.63
2022-10-25T04:10:36.601Z,13.87
2022-10-25T04:15:36.548Z,13.87
2022-10-25T04:20:36.470Z,13.73
2022-10-25T04:25:36.422Z,13.71
2022-10-25T04:30:38.682Z,13.80
2022-10-25T04:35:36.295Z,13.83
2022-10-25T04:40:36.230Z,13.79
2022-10-25T04:45:36.137Z,13.88
2022-10-25T04:50:36.087Z,13.87
2022-10-25T04:55:36.013Z,13.89
2022-10-25T05:00:35.931Z,13.91
2022-10-25T05:05:35.863Z,13.76
2022-10-25T05:10:35.817Z,13.44
2022-10-25T05:15:35.746Z,13.25
2022-10-25T05:20:35.672Z,12.97
2022-10-25T05:25:35.651Z,12.79
2022-10-25T05:30:35.608Z,12.70
2022-10-25T05:35:35.491Z,12.70
2022-10-25T05:40:35.410Z,12.78
2022-10-25T05:45:35.380Z,12.74
2022-10-25T05:50:35.317Z,12.70
2022-10-25T05:55:35.288Z,12.74
2022-10-25T06:00:35.226Z,12.81
2022-10-25T06:05:35.105Z,12.88
2022-10-25T06:10:35.101Z,12.93
2022-10-25T06:15:34.959Z,12.87
2022-10-25T06:20:34.962Z,12.88
2022-10-25T06:25:34.850Z,13.07
2022-10-25T06:30:34.818Z,13.56
2022-10-25T06:35:34.808Z,14.39
2022-10-25T06:40:34.620Z,14.72
2022-10-25T06:45:34.614Z,14.91
2022-10-25T06:50:34.852Z,15.11
2022-10-25T06:55:34.438Z,15.23
2022-10-25T07:00:34.355Z,15.31
2022-10-25T07:05:34.701Z,16.07
2022-10-25T07:10:34.236Z,16.88
2022-10-25T07:15:36.402Z,17.46
2022-10-25T07:20:34.087Z,18.04
2022-10-25T07:25:34.027Z,17.76
2022-10-25T07:30:33.950Z,17.74
2022-10-25T07:35:41.914Z,17.91
2022-10-25T07:40:34.820Z,18.27
2022-10-25T07:45:33.767Z,18.82
2022-10-25T07:50:33.692Z,18.80
2022-10-25T07:55:33.637Z,18.37
2022-10-25T08:00:33.563Z,18.46
2022-10-25T08:05:33.491Z,18.86
2022-10-25T08:10:33.450Z,19.10
2022-10-25T08:15:33.407Z,19.21
2022-10-25T08:21:00.058Z,19.06
2022-10-25T08:25:34.277Z,19.25
2022-10-25T08:30:33.169Z,19.43
2022-10-25T08:35:33.139Z,19.39
2022-10-25T08:40:33.028Z,19.01
2022-10-25T08:45:32.983Z,18.83
2022-10-25T08:50:32.920Z,18.55
2022-10-25T08:55:32.853Z,18.73
2022-10-25T09:00:32.771Z,18.98
2022-10-25T09:05:32.725Z,19.25
2022-10-25T09:10:32.631Z,19.63
2022-10-25T09:15:32.592Z,19.75
2022-10-25T09:20:32.531Z,20.18
2022-10-25T09:25:32.454Z,20.27
2022-10-25T09:30:32.406Z,19.97
2022-10-25T09:35:32.335Z,19.63
2022-10-25T09:40:32.542Z,19.80
2022-10-25T09:45:32.217Z,19.73
2022-10-25T09:50:32.141Z,19.69
2022-10-25T09:55:32.067Z,19.42
2022-10-25T10:00:31.997Z,18.82
2022-10-25T10:05:31.938Z,18.42
2022-10-25T10:10:31.870Z,18.36
2022-10-25T10:15:31.829Z,18.43
2022-10-25T10:20:31.728Z,18.44
2022-10-25T10:25:31.683Z,18.82
2022-10-25T10:30:31.640Z,18.99
2022-10-25T10:35:31.545Z,19.17
2022-10-25T10:40:31.490Z,19.13
2022-10-25T10:45:31.455Z,19.36
2022-10-25T10:50:31.346Z,19.29
2022-10-25T10:55:31.288Z,19.28
2022-10-25T11:00:31.202Z,19.21
2022-10-25T11:05:31.274Z,18.98
2022-10-25T11:10:31.136Z,19.05
2022-10-25T11:15:31.195Z,19.02
2022-10-25T11:20:30.993Z,19.01
2022-10-25T11:25:30.897Z,19.31
2022-10-25T11:30:31.133Z,19.80
2022-10-25T11:35:30.768Z,20.05
2022-10-25T11:40:30.707Z,20.23
2022-10-25T11:45:30.631Z,19.97
2022-10-25T11:50:30.537Z,20.13
2022-10-25T11:55:30.481Z,19.94
2022-10-25T12:00:30.422Z,19.90
2022-10-25T12:05:30.351Z,19.94
2022-10-25T12:10:30.283Z,19.90
2022-10-25T12:15:30.221Z,19.98
2022-10-25T12:20:30.221Z,20.02
2022-10-25T12:25:30.095Z,20.18
2022-10-25T12:30:30.055Z,20.38
2022-10-25T12:35:29.963Z,20.27
2022-10-25T12:40:29.909Z,20.03
2022-10-25T12:45:29.849Z,20.10
2022-10-25T12:50:29.768Z,20.21
2022-10-25T12:55:29.706Z,20.38
2022-10-25T13:00:29.645Z,20.33
2022-10-25T13:05:29.600Z,19.79
2022-10-25T13:10:29.508Z,19.50
2022-10-25T13:15:29.440Z,19.11
2022-10-25T13:20:29.389Z,18.83
2022-10-25T13:25:29.359Z,18.43
2022-10-25T13:30:29.299Z,18.29
2022-10-25T13:35:29.243Z,18.25
2022-10-25T13:40:29.170Z,18.25
2022-10-25T13:45:31.339Z,18.79
2022-10-25T13:50:29.051Z,18.92
2022-10-25T13:55:28.943Z,18.87
2022-10-25T14:00:28.976Z,18.99
2022-10-25T14:05:28.805Z,18.98
2022-10-25T14:10:28.734Z,18.90
2022-10-25T14:15:28.717Z,18.83
2022-10-25T14:20:28.627Z,18.79
2022-10-25T14:25:28.535Z,18.68
2022-10-25T14:30:28.531Z,18.54
2022-10-25T14:35:28.424Z,18.40
2022-10-25T14:40:28.348Z,18.22
2022-10-25T14:45:28.283Z,18.09
2022-10-25T14:50:28.209Z,18.00
2022-10-25T14:55:28.149Z,17.94
2022-10-25T15:00:28.117Z,17.84
2022-10-25T15:05:27.999Z,17.70
2022-10-25T15:10:27.989Z,17.47
2022-10-25T15:15:27.856Z,17.18
2022-10-25T15:20:27.812Z,17.03
2022-10-25T15:25:27.760Z,16.77
2022-10-25T15:30:27.710Z,16.48
2022-10-25T15:35:27.631Z,16.22
2022-10-25T15:40:27.592Z,15.88
2022-10-25T15:45:27.506Z,15.54
2022-10-25T15:50:27.481Z,15.23
2022-10-25T15:55:27.357Z,14.93
2022-10-25T16:00:28.332Z,14.78
2022-10-25T16:05:27.274Z,14.62
2022-10-25T16:10:27.161Z,14.47
2022-10-25T16:15:27.121Z,14.24
2022-10-25T16:20:26.995Z,14.19
2022-10-25T16:25:30.558Z,14.10
2022-10-25T16:30:27.869Z,14.02
2022-10-25T16:35:26.974Z,14.01
2022-10-25T16:40:26.776Z,13.96
2022-10-25T16:45:26.791Z,13.87
2022-10-25T16:50:26.637Z,13.56
2022-10-25T16:55:26.575Z,13.41
2022-10-25T17:00:26.596Z,13.25
2022-10-25T17:05:26.443Z,13.07
2022-10-25T17:10:26.374Z,12.93
2022-10-25T17:15:26.330Z,12.82
2022-10-25T17:20:26.235Z,12.70
2022-10-25T17:25:26.241Z,12.63
2022-10-25T17:30:26.140Z,12.62
2022-10-25T17:35:29.665Z,12.56
2022-10-25T17:40:25.959Z,12.49
2022-10-25T17:45:25.924Z,12.34
2022-10-25T17:50:25.857Z,12.23
2022-10-25T17:55:28.589Z,12.19
2022-10-25T18:00:26.697Z,12.24
2022-10-25T18:05:25.632Z,12.19
2022-10-25T18:10:25.611Z,12.06
2022-10-25T18:15:25.546Z,12.06
2022-10-25T18:20:25.554Z,11.93
2022-10-25T18:25:25.422Z,11.89
2022-10-25T18:30:25.360Z,11.83
2022-10-25T18:35:25.271Z,11.83
2022-10-25T18:40:25.209Z,11.74
2022-10-25T18:50:25.052Z,11.59
2022-10-25T18:55:24.975Z,11.59
2022-10-25T19:00:24.917Z,11.57
2022-10-25T19:05:24.896Z,11.56
2022-10-25T19:10:24.827Z,11.52
2022-10-25T19:15:25.820Z,11.38
2022-10-25T19:20:24.701Z,11.28
2022-10-25T19:25:24.710Z,11.34
2022-10-25T19:30:24.525Z,11.31
2022-10-25T19:35:24.454Z,11.28
2022-10-25T19:40:24.382Z,11.16
2022-10-25T19:45:24.345Z,11.13
2022-10-25T19:50:24.277Z,11.03
2022-10-25T19:55:24.193Z,10.95
2022-10-25T20:00:24.192Z,10.96
2022-10-25T20:05:24.083Z,11.03
2022-10-25T20:10:23.980Z,11.09
2022-10-25T20:15:24.060Z,10.96
2022-10-25T20:20:23.870Z,10.94
2022-10-25T20:25:24.310Z,10.96
2022-10-25T20:30:23.931Z,10.92
2022-10-25T20:35:26.266Z,10.89
2022-10-25T20:40:23.634Z,10.73
2022-10-25T20:45:23.890Z,10.55
2022-10-25T20:50:23.478Z,10.60
2022-10-25T20:55:23.420Z,10.62
2022-10-25T21:00:23.370Z,10.55
2022-10-25T21:05:23.282Z,10.43
2022-10-25T21:10:23.211Z,10.34
2022-10-25T21:15:23.152Z,10.26
2022-10-25T21:20:23.092Z,10.25
2022-10-25T21:25:23.045Z,10.18
2022-10-25T21:30:22.930Z,10.18
2022-10-25T21:35:22.899Z,10.06
2022-10-25T21:40:22.815Z,10.09
2022-10-25T21:45:22.809Z,9.94
2022-10-25T21:50:22.700Z,10.06
2022-10-25T21:55:22.665Z,10.00
2022-10-25T22:00:22.614Z,9.97
2022-10-25T22:05:22.483Z,9.91
2022-10-25T22:10:22.492Z,9.83
2022-10-25T22:15:22.354Z,9.83
2022-10-25T22:20:22.293Z,9.75
2022-10-25T22:25:22.231Z,9.76
2022-10-25T22:30:22.150Z,9.71
2022-10-25T22:35:22.130Z,9.71
2022-10-25T22:40:22.000Z,9.57
2022-10-25T22:45:21.958Z,9.60
2022-10-25T22:50:21.854Z,9.53
2022-10-25T22:55:21.846Z,9.53
2022-10-25T23:00:21.733Z,9.48
2022-10-25T23:05:21.744Z,9.38
2022-10-25T23:10:21.598Z,9.32
2022-10-25T23:15:21.537Z,9.34
2022-10-25T23:20:21.461Z,9.20
2022-10-25T23:25:21.401Z,9.23
2022-10-25T23:30:21.344Z,9.24
2022-10-25T23:35:21.278Z,9.16
2022-10-25T23:40:21.283Z,9.13
2022-10-25T23:45:21.211Z,9.16
2022-10-25T23:50:21.255Z,9.05
2022-10-25T23:55:21.158Z,8.99
